Tiempo atmosférico en la estación meteorológica de Almazul, Soria (1000 m.)



Fecha
DESCASC
Temp. máxima en grados centígrados (hora)
DESCASC
Temp. mínima en grados centígrados (hora)
DESCASC
Temp. media en grados centígrados
DESCASC
Racha de viento máxima en m/sg (hora)
DESCASC
Velocidad máxima media en intervalos de 10 minutos(hora)
DESCASC
Precipitaciones diarias en mm
DESCASC
Precipitaciones de 00:00 a 06:00 en mm
DESCASC
Precipitaciones de 06:00 a 12:00 en mm
DESCASC
Precipitaciones de 12:00 a 18:00 en mm
DESCASC
Precipitaciones de 18:00 a 24:00 en mm
DESCASC
10-07-2020 29.2 (14:40) 13.1 (07:00) 21.2 10.56 (18:40) 8.33 (19:40) 0 0 0 0 0
09-07-2020 29.3 (14:40) 16 (04:30) 22.6 16.94 (16:20) 11.67 (16:10) 0 0 0 0 0
08-07-2020 34.2 (15:50) 14.5 (03:50) 24.4 19.72 (18:00) 14.17 (18:10) 0.2 0 0 0 0.2
07-07-2020 33.3 (16:00) 10.3 (06:30) 21.8 9.17 (17:20) 5.56 (16:20) 0 0 0 0 0
06-07-2020 26.4 (16:20) 15.4 (00:00) 20.9 15.28 (18:50) 11.67 (18:50) 0 0 0 0 0
05-07-2020 32.4 (18:20) 12.4 (06:30) 22.4 10.83 (23:50) 7.78 (21:50) 0 0 0 0 0
04-07-2020 28.2 (16:50) 6.6 (05:40) 17.4 11.94 (22:10) 8.33 (22:10) 0 0 0 0 0
03-07-2020 24.3 (17:30) 10.3 (06:40) 17.3 14.72 (01:10) 10.83 (01:10) 0 0 0 0 0
02-07-2020 27.4 (14:30) 12.1 (00:00) 19.8 15.28 (21:20) 11.67 (21:10) 0 0 0 0 0
01-07-2020 30.5 (15:20) 15.5 (00:00) 23 11.39 (14:40) 6.67 (20:20) 0 0 0 0 0
30-06-2020 32.6 (15:40) 14.9 (00:00) 23.7 11.11 (19:40) 7.78 (19:40) 0 0 0 0 0
29-06-2020 32.9 (17:20) 14 (00:00) 23.5 10 (15:30) 7.78 (20:30) 0 0 0 0 0
28-06-2020 31.2 (19:10) 13.8 (00:00) 22.5 10 (14:30) 6.94 (21:10) 0 0 0 0 0
27-06-2020 28 (18:20) 14.1 (00:00) 21.1 9.72 (17:10) 5.83 (12:10) 0 0 0 0 0
26-06-2020 28.9 (17:30) 14.5 (00:00) 21.7 13.33 (14:20) 9.44 (00:40) 0 0 0 0 0
25-06-2020 31.2 (15:30) 14.3 (00:00) 22.8 15.28 (18:00) 10.56 (17:20) 1.2 0 0 0 1.2
24-06-2020 30.4 (17:50) 16.1 (00:00) 23.3 14.72 (15:10) 10.56 (15:10) 0 0 0 0 0
23-06-2020 33.7 (16:40) 11.8 (00:00) 22.8 10.83 (21:00) 7.5 (20:50) 0 0 0 0 0
22-06-2020 28.8 (17:40) 12 (00:00) 20.4 12.5 (00:10) 8.89 (00:20) 0 0 0 0 0
21-06-2020 28.8 (17:10) 11.2 (00:00) 20 14.44 (22:30) 10.56 (21:40) 0 0 0 0 0
20-06-2020 28.3 (18:30) 10.8 (00:00) 19.5 12.5 (18:20) 6.39 (14:20) 0 0 0 0 0
19-06-2020 26.6 (18:50) 8.8 (00:00) 17.7 9.17 (17:30) 5.56 (21:30) 0 0 0 0 0
18-06-2020 21.8 (16:40) 7.8 (07:00) 14.8 8.33 (19:00) 6.11 (19:00) 0.6 0.4 0 0.2 0
17-06-2020 20.7 (17:20) 8.4 (00:00) 14.6 10 (19:00) 7.22 (19:00) 0.4 0 0 0.4 0
16-06-2020 20.9 (18:10) 10.6 (00:00) 15.8 13.33 (19:00) 9.17 (19:00) 1.8 1.4 0.4 0 0
15-06-2020 22.1 (16:00) 8.5 (00:00) 15.3 15.83 (19:30) 11.11 (19:40) 0.8 0 0 0 0.8
14-06-2020 20.7 (15:40) 9.9 (00:00) 15.3 9.17 (14:30) 5.83 (14:20) 0 0 0 0 0
13-06-2020 18.5 (18:20) 6.9 (00:00) 12.7 11.39 (14:00) 7.78 (12:10) 0 0 0 0 0
12-06-2020 16.2 (18:30) 6.3 (00:00) 11.3 15.83 (18:10) 10.83 (18:10) 0.6 0 0 0 0.6

Gráficas

Temp. máximas Temp. mínimas Temp. medias Precipitaciones Rachas de viento máximas Velocidades máximas media en intervalos de 10 minutos

Datos horarios

Fecha y hora oficial Temperatura (ºC) Velocidad del viento (km/h) Dirección del viento Racha (km/h) Dirección de racha Precipitación (mm) Presión (hPa) Tendencia (hPa) Humedad (%)
2020-07-11 23:00:00 20.6 12 Nordeste 22 Este 0 -- -- 56
2020-07-11 22:00:00 22.3 15 Este 34 Este 0 -- -- 53
2020-07-11 21:00:00 25.1 21 Sudeste 33 Sudeste 0 -- -- 46
2020-07-11 20:00:00 27.1 23 Sudeste 36 Sudeste 0 -- -- 42
2020-07-11 19:00:00 28.2 26 Sudeste 37 Sudeste 0 -- -- 40
2020-07-11 18:00:00 27.1 23 Sudeste 31 Sudeste 0 -- -- 42
2020-07-11 17:00:00 27.9 16 Sudeste 34 Este 0 -- -- 41
2020-07-11 16:00:00 29.7 17 Sudeste 33 Sudeste 0 -- -- 39
2020-07-11 15:00:00 29 13 Sudeste 27 Sudeste 0 -- -- 41
2020-07-11 14:00:00 27.8 13 Este 32 Sudoeste 0 -- -- 45
2020-07-11 13:00:00 26.8 9 Sur 24 Sur 0 -- -- 47
2020-07-11 12:00:00 25.1 10 Sur 19 Sudeste 0 -- -- 50
2020-07-11 11:00:00 23.3 6 Sur 16 Sudeste 0 -- -- 56
2020-07-11 10:00:00 21.2 6 Sur 9 Sur 0 -- -- 60
2020-07-11 09:00:00 18.9 4 Sur 8 Sudeste 0 -- -- 66
2020-07-11 08:00:00 14.8 5 Sudeste 9 Nordeste 0 -- -- 82
2020-07-11 07:00:00 12.2 8 Nordeste 12 Nordeste 0 -- -- 90
2020-07-11 06:00:00 12.3 5 Nordeste 14 Norte 0 -- -- 91
2020-07-11 05:00:00 12.7 8 Nordeste 13 Nordeste 0 -- -- 89
2020-07-11 04:00:00 13.8 10 Nordeste 21 Nordeste 0 -- -- 85
2020-07-11 03:00:00 14 14 Nordeste 18 Nordeste 0 -- -- 85
2020-07-11 02:00:00 14.6 12 Norte 20 Nordeste 0 -- -- 84
2020-07-11 01:00:00 14.9 11 Nordeste 27 Nordeste 0 -- -- 82
2020-07-11 00:00:00 15.8 13 Norte 27 Nordeste 0 -- -- 79
2020-07-10 23:00:00 17.1 22 Nordeste 31 Nordeste 0 -- -- 75
2020-07-10 22:00:00 18.9 22 Nordeste 33 Nordeste 0 -- -- 69
2020-07-10 21:00:00 22.2 27 Nordeste 35 Nordeste 0 -- -- 59
2020-07-10 20:00:00 24.1 24 Nordeste 37 Nordeste 0 -- -- 53
2020-07-10 19:00:00 25.5 24 Nordeste 38 Nordeste 0 -- -- 48
2020-07-10 18:00:00 27.5 17 Este 28 Este 0 -- -- 41
2020-07-10 17:00:00 25.8 22 Nordeste 33 Este 0 -- -- 46
2020-07-10 16:00:00 25.6 24 Nordeste 34 Este 0 -- -- 47
2020-07-10 15:00:00 27.1 11 Sudeste 31 Sur 0 -- -- 40
2020-07-10 14:00:00 28 14 Sur 30 Sur 0 -- -- 39
2020-07-10 13:00:00 27 12 Sur 31 Este 0 -- -- 40
2020-07-10 12:00:00 27.1 8 Sur 17 Este 0 -- -- 39
2020-07-10 11:00:00 24.8 5 Norte 13 Norte 0 -- -- 45
2020-07-10 10:00:00 23.3 6 Sur 10 Sur 0 -- -- 48
2020-07-10 09:00:00 19.5 4 Nordeste 8 Nordeste 0 -- -- 62
2020-07-10 08:00:00 15.8 7 Nordeste 12 Norte 0 -- -- 80
2020-07-10 07:00:00 13.1 4 Norte 9 Nordeste 0 -- -- 84
2020-07-10 06:00:00 14.8 3 Nordeste 16 Sudeste 0 -- -- 78
2020-07-10 05:00:00 14.9 13 Sudeste 19 Este 0 -- -- 81
2020-07-10 04:00:00 15.4 15 Sudeste 23 Este 0 -- -- 83
2020-07-10 03:00:00 15.9 3 Sur 17 Sur 0 -- -- 77
2020-07-10 02:00:00 16 9 Sur 14 Norte 0 -- -- 77
2020-07-10 01:00:00 16.6 9 Norte 23 Este 0 -- -- 73
2020-07-10 00:00:00 16.5 10 Sudeste 24 Sur 0 -- -- 77
2020-07-09 23:00:00 17 27 Sur 43 Sur 0 -- -- 71
2020-07-09 22:00:00 19.2 30 Sur 51 Sur 0 -- -- 59
2020-07-09 21:00:00 19.5 8 Sudoeste 32 Oeste 0 -- -- 56
2020-07-09 20:00:00 20.1 15 Noroeste 40 Norte 0 -- -- 55
2020-07-09 19:00:00 23 20 Noroeste 31 Noroeste 0 -- -- 42
2020-07-09 18:00:00 25.2 14 Oeste 41 Sudoeste 0 -- -- 39
2020-07-09 17:00:00 24.8 38 Sudoeste 61 Sur 0 -- -- 44
2020-07-09 16:00:00 27.2 36 Sur 50 Sudeste 0 -- -- 39
2020-07-09 15:00:00 28 26 Sur 39 Sur 0 -- -- 37
2020-07-09 14:00:00 27.9 25 Sur 42 Sur 0 -- -- 35
2020-07-09 13:00:00 28.3 25 Sur 37 Sur 0 -- -- 34
2020-07-09 12:00:00 28.9 13 Sur 23 Sudoeste 0 -- -- 32
2020-07-09 11:00:00 26.1 17 Sur 31 Sudeste 0 -- -- 39
2020-07-09 10:00:00 25 17 Sur 27 Sur 0 -- -- 42
2020-07-09 09:00:00 22.4 12 Sur 24 Sudeste 0 -- -- 47
2020-07-09 08:00:00 19.2 9 Norte 13 Norte 0 -- -- 56
2020-07-09 07:00:00 18.1 8 Nordeste 19 Nordeste 0 -- -- 60
2020-07-09 06:00:00 18.6 12 Nordeste 19 Este 0 -- -- 57
2020-07-09 05:00:00 17.7 8 Sudeste 18 Sudeste 0 -- -- 61
2020-07-09 04:00:00 16.9 3 Norte 13 Nordeste 0 -- -- 64
2020-07-09 03:00:00 16.9 8 Norte 20 Norte 0 -- -- 64
2020-07-09 02:00:00 19 12 Nordeste 25 Noroeste 0 -- -- 55
2020-07-09 01:00:00 20.2 8 Nordeste 25 Noroeste 0 -- -- 50
2020-07-09 00:00:00 21.6 18 Norte 29 Noroeste 0 -- -- 47
2020-07-08 23:00:00 21.6 10 Sur 33 Sur 0 -- -- 48
2020-07-08 22:00:00 22.4 27 Sur 40 Sudoeste 0 -- -- 44
2020-07-08 21:00:00 25.9 32 Sudeste 45 Sudeste 0 -- -- 31
2020-07-08 20:00:00 24.4 33 Sudeste 55 Sudeste 0 -- -- 39
2020-07-08 19:00:00 27.9 26 Este 69 Oeste 0.2 -- -- 25
2020-07-08 18:00:00 28.6 46 Oeste 71 Oeste 0 -- -- 24
2020-07-08 17:00:00 31.9 19 Nordeste 26 Norte 0 -- -- 23
2020-07-08 16:00:00 33.7 6 Oeste 18 Nordeste 0 -- -- 22
2020-07-08 15:00:00 31.9 11 Norte 18 Norte 0 -- -- 25
2020-07-08 14:00:00 32.2 5 Sudeste 13 Sur 0 -- -- 25
2020-07-08 13:00:00 29.5 4 Sudoeste 37 Sudeste 0 -- -- 29
2020-07-08 12:00:00 23.9 27 Sudeste 38 Sudeste 0 -- -- 41
2020-07-08 11:00:00 24 23 Sudoeste 37 Sudoeste 0 -- -- 41
2020-07-08 10:00:00 24.7 13 Sudoeste 23 Sudeste 0 -- -- 39
2020-07-08 09:00:00 21.5 11 Sudeste 35 Oeste 0 -- -- 42
2020-07-08 08:00:00 18.2 4 Nordeste 13 Este 0 -- -- 54
2020-07-08 07:00:00 18.4 16 Este 20 Este 0 -- -- 45
2020-07-08 06:00:00 16.2 10 Este 17 Este 0 -- -- 56
2020-07-08 05:00:00 15.4 9 Nordeste 14 Nordeste 0 -- -- 62
2020-07-08 04:00:00 14.9 10 Norte 13 Norte 0 -- -- 65
2020-07-08 03:00:00 16.7 0 Calma 5 Este 0 -- -- 57
2020-07-08 02:00:00 17.5 3 Nordeste 8 Nordeste 0 -- -- 55
2020-07-08 01:00:00 18 8 Nordeste 13 Norte 0 -- -- 53
2020-07-08 00:00:00 20.4 14 Este 19 Este 0 -- -- 46
2020-07-07 23:00:00 21.3 8 Este 19 Este 0 -- -- 43
2020-07-07 22:00:00 23.1 16 Este 24 Este 0 -- -- 39
2020-07-07 21:00:00 26.8 16 Este 25 Este 0 -- -- 31
2020-07-07 20:00:00 29.1 18 Sudeste 29 Sudeste 0 -- -- 28
2020-07-07 19:00:00 30.9 18 Este 30 Este 0 -- -- 27
2020-07-07 18:00:00 32 15 Sudeste 33 Sudeste 0 -- -- 27
2020-07-07 17:00:00 32.4 20 Nordeste 32 Nordeste 0 -- -- 27
2020-07-07 16:00:00 33.3 18 Oeste 32 Noroeste 0 -- -- 29
2020-07-07 15:00:00 31.1 13 Norte 27 Norte 0 -- -- 31
2020-07-07 14:00:00 29.7 8 Norte 19 Norte 0 -- -- 29
2020-07-07 13:00:00 27.8 11 Noroeste 18 Norte 0 -- -- 29
2020-07-07 12:00:00 25.9 8 Nordeste 18 Norte 0 -- -- 21
2020-07-07 11:00:00 24.4 6 Norte 19 Norte 0 -- -- 18
2020-07-07 10:00:00 21.7 10 Norte 15 Norte 0 -- -- 18
2020-07-07 09:00:00 18.6 10 Norte 14 Norte 0 -- -- 25
2020-07-07 08:00:00 14.9 12 Norte 15 Norte 0 -- -- 29
2020-07-07 07:00:00 11 15 Norte 19 Norte 0 -- -- 39
2020-07-07 06:00:00 10.8 15 Nordeste 19 Nordeste 0 -- -- 42
2020-07-07 05:00:00 11.9 17 Nordeste 19 Nordeste 0 -- -- 40
2020-07-07 04:00:00 11.4 9 Nordeste 19 Nordeste 0 -- -- 46
2020-07-07 03:00:00 13.4 15 Nordeste 22 Norte 0 -- -- 41
2020-07-07 02:00:00 14.4 15 Norte 24 Norte 0 -- -- 40
2020-07-07 01:00:00 15 18 Norte 28 Norte 0 -- -- 44
2020-07-07 00:00:00 15.7 19 Norte 30 Norte 0 -- -- 54
2020-07-06 23:00:00 16.1 19 Norte 35 Nordeste 0 -- -- 69
2020-07-06 22:00:00 17.2 28 Nordeste 46 Nordeste 0 -- -- 67
2020-07-06 21:00:00 19.9 35 Nordeste 51 Nordeste 0 -- -- 57
2020-07-06 20:00:00 21.9 39 Nordeste 53 Nordeste 0 -- -- 51
2020-07-06 19:00:00 23.7 41 Nordeste 55 Nordeste 0 -- -- 47
2020-07-06 18:00:00 25.2 39 Nordeste 52 Nordeste 0 -- -- 43
2020-07-06 17:00:00 25.9 39 Nordeste 50 Este 0 -- -- 39
2020-07-06 16:00:00 26.2 34 Nordeste 50 Nordeste 0 -- -- 42
2020-07-06 15:00:00 25.5 31 Nordeste 44 Este 0 -- -- 44
2020-07-06 14:00:00 24.9 31 Nordeste 41 Nordeste 0 -- -- 46
2020-07-06 13:00:00 24.9 24 Nordeste 36 Nordeste 0 -- -- 46
2020-07-06 12:00:00 23.9 23 Nordeste 36 Nordeste 0 -- -- 50
2020-07-06 11:00:00 22.2 28 Nordeste 42 Nordeste 0 -- -- 53
2020-07-06 10:00:00 20.5 32 Nordeste 42 Nordeste 0 -- -- 56
2020-07-06 09:00:00 20 30 Nordeste 41 Nordeste 0 -- -- 55
2020-07-06 08:00:00 19 16 Nordeste 25 Norte 0 -- -- 57
2020-07-06 07:00:00 15.4 10 Norte 17 Nordeste 0 -- -- 68
2020-07-06 06:00:00 16.6 11 Norte 16 Nordeste 0 -- -- 64
2020-07-06 05:00:00 16.7 8 Nordeste 15 Nordeste 0 -- -- 65
2020-07-06 04:00:00 17.6 5 Nordeste 20 Nordeste 0 -- -- 65
2020-07-06 03:00:00 17 10 Norte 24 Norte 0 -- -- 70
2020-07-06 02:00:00 18.3 19 Norte 25 Norte 0 -- -- 65
2020-07-06 01:00:00 19.4 22 Nordeste 31 Nordeste 0 -- -- 61
2020-07-06 00:00:00 20.6 27 Nordeste 39 Nordeste 0 -- -- 58
2020-07-05 23:00:00 21.4 26 Nordeste 35 Nordeste 0 -- -- 56
2020-07-05 22:00:00 23.2 28 Nordeste 38 Nordeste 0 -- -- 52
2020-07-05 21:00:00 27.1 25 Nordeste 33 Nordeste 0 -- -- 39
2020-07-05 20:00:00 29.4 20 Nordeste 29 Nordeste 0 -- -- 35
2020-07-05 19:00:00 30.8 17 Nordeste 28 Norte 0 -- -- 30
2020-07-05 18:00:00 31.6 12 Nordeste 31 Nordeste 0 -- -- 27
2020-07-05 17:00:00 31 9 Este 24 Nordeste 0 -- -- 28
2020-07-05 16:00:00 30 9 Norte 27 Nordeste 0 -- -- 28
2020-07-05 15:00:00 29.5 9 Nordeste 28 Nordeste 0 -- -- 29
2020-07-05 14:00:00 28.2 10 Nordeste 23 Nordeste 0 -- -- 31
2020-07-05 13:00:00 27.8 11 Norte 24 Nordeste 0 -- -- 31
2020-07-05 12:00:00 26.6 12 Norte 23 Nordeste 0 -- -- 34
2020-07-05 11:00:00 25.4 8 Nordeste 19 Nordeste 0 -- -- 37
2020-07-05 10:00:00 23.1 14 Nordeste 20 Nordeste 0 -- -- 43
2020-07-05 09:00:00 20.1 10 Norte 14 Norte 0 -- -- 51
2020-07-05 08:00:00 16.1 9 Norte 12 Norte 0 -- -- 62
2020-07-05 07:00:00 12.8 3 Nordeste 17 Nordeste 0 -- -- 71
2020-07-05 06:00:00 13 9 Norte 12 Norte 0 -- -- 68
2020-07-05 05:00:00 13.1 9 Norte 12 Norte 0 -- -- 68
2020-07-05 04:00:00 14.1 10 Norte 22 Norte 0 -- -- 66
2020-07-05 03:00:00 15.7 19 Norte 22 Norte 0 -- -- 60
2020-07-05 02:00:00 17 14 Norte 20 Norte 0 -- -- 56
2020-07-05 01:00:00 17.7 15 Norte 27 Nordeste 0 -- -- 53
2020-07-05 00:00:00 18.2 19 Nordeste 39 Nordeste 0 -- -- 51
2020-07-04 23:00:00 19.6 28 Nordeste 43 Nordeste 0 -- -- 44
2020-07-04 22:00:00 21.1 27 Nordeste 40 Nordeste 0 -- -- 35
2020-07-04 21:00:00 23.7 26 Nordeste 38 Nordeste 0 -- -- 30
2020-07-04 20:00:00 25.9 25 Nordeste 34 Nordeste 0 -- -- 24
2020-07-04 19:00:00 27.8 18 Nordeste 36 Nordeste 0 -- -- 22
2020-07-04 18:00:00 28.1 17 Nordeste 31 Nordeste 0 -- -- 20
2020-07-04 17:00:00 27.9 11 Nordeste 32 Norte 0 -- -- 20
2020-07-04 16:00:00 27.6 14 Norte 27 Este 0 -- -- 21
2020-07-04 15:00:00 26.9 15 Nordeste 31 Norte 0 -- -- 19
2020-07-04 14:00:00 25.9 13 Norte 26 Noroeste 0 -- -- 19
2020-07-04 13:00:00 24.8 9 Norte 21 Norte 0 -- -- 20
2020-07-04 12:00:00 23 6 Nordeste 23 Norte 0 -- -- 24
2020-07-04 11:00:00 21.2 11 Norte 18 Norte 0 -- -- 26
2020-07-04 10:00:00 19.3 8 Sur 12 Sur 0 -- -- 41
2020-07-04 09:00:00 14.7 4 Nordeste 12 Norte 0 -- -- 55
2020-07-04 08:00:00 10.1 8 Norte 11 Norte 0 -- -- 74
2020-07-04 07:00:00 7.2 4 Nordeste 11 Norte 0 -- -- 84
2020-07-04 06:00:00 6.7 6 Norte 11 Nordeste 0 -- -- 86
2020-07-04 05:00:00 7.9 8 Norte 12 Norte 0 -- -- 81
2020-07-04 04:00:00 9.3 2 Norte 9 Norte 0 -- -- 78
2020-07-04 03:00:00 9.8 9 Norte 15 Norte 0 -- -- 79
2020-07-04 02:00:00 10.7 14 Norte 22 Norte 0 -- -- 79
2020-07-04 01:00:00 12.3 17 Nordeste 23 Nordeste 0 -- -- 72
2020-07-04 00:00:00 13.2 15 Norte 28 Norte 0 -- -- 70
2020-07-03 23:00:00 14.5 21 Nordeste 36 Nordeste 0 -- -- 66
2020-07-03 22:00:00 16.2 27 Nordeste 36 Nordeste 0 -- -- 60
2020-07-03 21:00:00 19.3 24 Nordeste 34 Nordeste 0 -- -- 52
2020-07-03 20:00:00 21.7 25 Nordeste 34 Nordeste 0 -- -- 45
2020-07-03 19:00:00 23.2 21 Nordeste 29 Nordeste 0 -- -- 41
2020-07-03 18:00:00 24 14 Nordeste 22 Nordeste 0 -- -- 38
2020-07-03 17:00:00 22.9 11 Nordeste 24 Este 0 -- -- 37
2020-07-03 16:00:00 21.7 14 Nordeste 28 Nordeste 0 -- -- 38
2020-07-03 15:00:00 20.9 14 Nordeste 34 Este 0 -- -- 43
2020-07-03 14:00:00 19.5 14 Nordeste 29 Nordeste 0 -- -- 48
2020-07-03 13:00:00 18.6 16 Nordeste 28 Nordeste 0 -- -- 51
2020-07-03 12:00:00 17.7 11 Nordeste 26 Nordeste 0 -- -- 53
2020-07-03 11:00:00 16.1 21 Nordeste 35 Nordeste 0 -- -- 58
2020-07-03 10:00:00 14.9 26 Nordeste 40 Nordeste 0 -- -- 62
2020-07-03 09:00:00 13.4 29 Nordeste 42 Nordeste 0 -- -- 71
2020-07-03 08:00:00 12.2 30 Nordeste 44 Nordeste 0 -- -- 74
2020-07-03 07:00:00 10.4 28 Nordeste 46 Nordeste 0 -- -- 84
2020-07-03 06:00:00 10.7 32 Nordeste 44 Nordeste 0 -- -- 83
2020-07-03 05:00:00 11.1 32 Nordeste 48 Nordeste 0 -- -- 83
2020-07-03 04:00:00 11.2 35 Nordeste 49 Nordeste 0 -- -- 85
2020-07-03 03:00:00 11.6 35 Nordeste 50 Nordeste 0 -- -- 84
2020-07-03 02:00:00 11.9 35 Nordeste 53 Nordeste 0 -- -- 82
2020-07-03 01:00:00 12.1 37 Nordeste 49 Nordeste 0 -- -- 82
2020-07-03 00:00:00 12.3 35 Nordeste 55 Nordeste 0 -- -- 84
2020-07-02 23:00:00 12.4 38 Nordeste 55 Nordeste 0 -- -- 84
2020-07-02 22:00:00 13.2 41 Nordeste 55 Nordeste 0 -- -- 82
2020-07-02 21:00:00 16.2 39 Nordeste 51 Nordeste 0 -- -- 72
2020-07-02 20:00:00 18.9 39 Nordeste 48 Nordeste 0 -- -- 66
2020-07-02 19:00:00 21.1 31 Nordeste 41 Este 0 -- -- 61
2020-07-02 18:00:00 22.8 23 Este 32 Este 0 -- -- 55
2020-07-02 17:00:00 23.2 24 Este 35 Nordeste 0 -- -- 54
2020-07-02 16:00:00 27.1 14 Norte 36 Norte 0 -- -- 42
2020-07-02 15:00:00 26.8 19 Noroeste 35 Noroeste 0 -- -- 37
2020-07-02 14:00:00 25.8 19 Noroeste 38 Oeste 0 -- -- 38
2020-07-02 13:00:00 25.5 12 Noroeste 24 Noroeste 0 -- -- 43
2020-07-02 12:00:00 24.2 10 Nordeste 20 Norte 0 -- -- 49
2020-07-02 11:00:00 23.3 8 Norte 15 Noroeste 0 -- -- 49
2020-07-02 10:00:00 21 7 Noroeste 13 Noroeste 0 -- -- 65
2020-07-02 09:00:00 18.1 4 Norte 8 Norte 0 -- -- 82
2020-07-02 08:00:00 15.4 4 Norte 7 Nordeste 0 -- -- 90
2020-07-02 07:00:00 13.1 5 Norte 8 Nordeste 0 -- -- 96
2020-07-02 06:00:00 13.6 6 Nordeste 10 Norte 0 -- -- 95
2020-07-02 05:00:00 14 9 Nordeste 12 Norte 0 -- -- 95
2020-07-02 04:00:00 14.5 9 Nordeste 13 Norte 0 -- -- 93
2020-07-02 03:00:00 14.7 7 Nordeste 17 Nordeste 0 -- -- 93
2020-07-02 02:00:00 15.2 12 Nordeste 18 Nordeste 0 -- -- 90
2020-07-02 01:00:00 16.2 9 Nordeste 20 Nordeste 0 -- -- 87
2020-07-02 00:00:00 16.9 14 Nordeste 18 Nordeste 0 -- -- 85
2020-07-01 23:00:00 18.1 11 Nordeste 23 Nordeste 0 -- -- 82
2020-07-01 22:00:00 20.5 10 Nordeste 30 Nordeste 0 -- -- 74
2020-07-01 21:00:00 23.8 19 Este 31 Nordeste 0 -- -- 61
2020-07-01 20:00:00 24 22 Nordeste 39 Nordeste 0 -- -- 61
2020-07-01 19:00:00 30 15 Noroeste 24 Noroeste 0 -- -- 34
2020-07-01 18:00:00 28.5 6 Nordeste 35 Norte 0 -- -- 44
2020-07-01 17:00:00 27.1 21 Noroeste 30 Noroeste 0 -- -- 42
2020-07-01 16:00:00 28.8 20 Noroeste 31 Noroeste 0 -- -- 33
2020-07-01 15:00:00 29.7 18 Noroeste 41 Noroeste 0 -- -- 28
2020-07-01 14:00:00 28.8 19 Noroeste 36 Oeste 0 -- -- 33
2020-07-01 13:00:00 28.2 19 Noroeste 34 Oeste 0 -- -- 38
2020-07-01 12:00:00 27.5 17 Oeste 27 Noroeste 0 -- -- 43
2020-07-01 11:00:00 25.3 19 Noroeste 30 Noroeste 0 -- -- 45
2020-07-01 10:00:00 23.6 13 Noroeste 21 Noroeste 0 -- -- 56
2020-07-01 09:00:00 24.1 3 Sudoeste 8 Oeste 0 -- -- 59
2020-07-01 08:00:00 17.6 5 Norte 8 Norte 0 -- -- 82
2020-07-01 07:00:00 15.7 2 Nordeste 10 Norte 0 -- -- 86
2020-07-01 06:00:00 15.9 5 Nordeste 11 Nordeste 0 -- -- 85
2020-07-01 05:00:00 16.8 10 Nordeste 13 Nordeste 0 -- -- 83
2020-07-01 04:00:00 18.8 4 Noroeste 10 Sudeste 0 -- -- 76
2020-07-01 03:00:00 20.3 7 Sudeste 12 Sudeste 0 -- -- 74
2020-07-01 02:00:00 18.9 4 Nordeste 14 Nordeste 0 -- -- 70
2020-07-01 01:00:00 19.2 5 Norte 19 Nordeste 0 -- -- 67
2020-07-01 00:00:00 20.1 15 Nordeste 26 Norte 0 -- -- 64
2020-06-30 23:00:00 23.2 17 Sudeste 31 Este 0 -- -- 54
2020-06-30 22:00:00 23.8 24 Este 33 Este 0 -- -- 55
2020-06-30 21:00:00 23.8 15 Nordeste 32 Nordeste 0 -- -- 54
2020-06-30 20:00:00 26.1 23 Este 40 Sudeste 0 -- -- 45
2020-06-30 19:00:00 27.2 22 Este 32 Sudeste 0 -- -- 41
2020-06-30 18:00:00 30.1 23 Sudeste 36 Nordeste 0 -- -- 36
2020-06-30 17:00:00 29.7 17 Este 33 Nordeste 0 -- -- 38
2020-06-30 16:00:00 30.4 17 Sudeste 36 Sur 0 -- -- 35
2020-06-30 15:00:00 31.6 12 Sur 28 Sur 0 -- -- 32
2020-06-30 14:00:00 30.1 17 Sur 25 Sur 0 -- -- 34
2020-06-30 13:00:00 28.7 6 Sudeste 21 Sur 0 -- -- 37
2020-06-30 12:00:00 27 9 Sur 19 Sur 0 -- -- 40
2020-06-30 11:00:00 25.2 10 Sur 21 Sur 0 -- -- 43
2020-06-30 10:00:00 22.9 9 Sur 13 Sur 0 -- -- 50
2020-06-30 09:00:00 22.7 3 Sur 6 Sur 0 -- -- 53
2020-06-30 08:00:00 18.7 0 Calma 12 Sudeste 0 -- -- 68
2020-06-30 07:00:00 14.9 4 Sudeste 12 Este 0 -- -- 80
2020-06-30 06:00:00 15.7 10 Este 12 Este 0 -- -- 82
2020-06-30 05:00:00 16.8 6 Sudeste 14 Sudeste 0 -- -- 77
2020-06-30 04:00:00 15.7 4 Este 11 Norte 0 -- -- 70
2020-06-30 03:00:00 16 9 Norte 11 Norte 0 -- -- 63
2020-06-30 02:00:00 16.6 4 Norte 18 Nordeste 0 -- -- 65
2020-06-30 01:00:00 17.5 13 Nordeste 22 Nordeste 0 -- -- 72
2020-06-30 00:00:00 18.4 15 Nordeste 26 Nordeste 0 -- -- 76
2020-06-29 23:00:00 18.7 21 Nordeste 30 Nordeste 0 -- -- 75
2020-06-29 22:00:00 20.1 22 Nordeste 33 Nordeste 0 -- -- 70
2020-06-29 21:00:00 22.7 26 Nordeste 35 Nordeste 0 -- -- 61
2020-06-29 20:00:00 25.1 24 Nordeste 33 Nordeste 0 -- -- 55
2020-06-29 19:00:00 26.8 22 Nordeste 35 Este 0 -- -- 50
2020-06-29 18:00:00 27.8 24 Nordeste 33 Nordeste 0 -- -- 46
2020-06-29 17:00:00 32.7 10 Sudoeste 27 Sudoeste 0 -- -- 26
2020-06-29 16:00:00 32.2 7 Sur 36 Oeste 0 -- -- 32
2020-06-29 15:00:00 29.2 12 Oeste 33 Sudoeste 0 -- -- 39
2020-06-29 14:00:00 28.5 14 Sudoeste 26 Sudoeste 0 -- -- 41
2020-06-29 13:00:00 27.7 9 Sur 26 Sudoeste 0 -- -- 45
2020-06-29 12:00:00 26.6 9 Sudoeste 24 Sur 0 -- -- 49
2020-06-29 11:00:00 24.7 10 Sur 19 Sur 0 -- -- 55
2020-06-29 10:00:00 22.8 4 Oeste 12 Sudoeste 0 -- -- 59
2020-06-29 09:00:00 20.5 5 Nordeste 11 Nordeste 0 -- -- 69
2020-06-29 08:00:00 17.1 8 Nordeste 14 Nordeste 0 -- -- 82
2020-06-29 07:00:00 14.3 10 Norte 14 Nordeste 0 -- -- 91
2020-06-29 06:00:00 14.2 8 Nordeste 13 Nordeste 0 -- -- 90
2020-06-29 05:00:00 14.6 9 Nordeste 13 Nordeste 0 -- -- 89
2020-06-29 04:00:00 15.3 6 Nordeste 18 Nordeste 0 -- -- 87
2020-06-29 03:00:00 16.2 15 Nordeste 20 Nordeste 0 -- -- 83
2020-06-29 02:00:00 16.9 8 Norte 18 Nordeste 0 -- -- 79
2020-06-29 01:00:00 18.2 15 Nordeste 25 Nordeste 0 -- -- 74
2020-06-29 00:00:00 19.7 17 Nordeste 28 Nordeste 0 -- -- 68
2020-06-28 23:00:00 20.9 17 Nordeste 28 Nordeste 0 -- -- 65
2020-06-28 22:00:00 23 19 Nordeste 32 Nordeste 0 -- -- 59
2020-06-28 21:00:00 26 21 Nordeste 30 Nordeste 0 -- -- 49
2020-06-28 20:00:00 29.4 14 Noroeste 27 Oeste 0 -- -- 37
2020-06-28 19:00:00 29.3 11 Noroeste 23 Oeste 0 -- -- 36
2020-06-28 18:00:00 28.6 9 Oeste 26 Norte 0 -- -- 37
2020-06-28 17:00:00 29.1 15 Noroeste 29 Noroeste 0 -- -- 35
2020-06-28 16:00:00 28.2 13 Noroeste 29 Noroeste 0 -- -- 37
2020-06-28 15:00:00 28.6 15 Oeste 36 Oeste 0 -- -- 35
2020-06-28 14:00:00 27.7 12 Noroeste 26 Oeste 0 -- -- 39
2020-06-28 13:00:00 26.1 8 Noroeste 25 Nordeste 0 -- -- 43
2020-06-28 12:00:00 25 9 Norte 16 Norte 0 -- -- 47
2020-06-28 11:00:00 23.4 9 Noroeste 18 Noroeste 0 -- -- 51
2020-06-28 10:00:00 20.3 9 Norte 16 Noroeste 0 -- -- 62
2020-06-28 09:00:00 19.1 9 Norte 13 Norte 0 -- -- 65
2020-06-28 08:00:00 17.5 4 Norte 8 Nordeste 0 -- -- 71
2020-06-28 07:00:00 14 5 Nordeste 11 Norte 0 -- -- 85
2020-06-28 06:00:00 14.8 8 Norte 13 Norte 0 -- -- 81
2020-06-28 05:00:00 15.6 10 Nordeste 15 Norte 0 -- -- 80
2020-06-28 04:00:00 15.8 8 Norte 12 Norte 0 -- -- 84
2020-06-28 03:00:00 15.7 5 Norte 10 Norte 0 -- -- 82
2020-06-28 02:00:00 16.5 9 Norte 13 Norte 0 -- -- 80
2020-06-28 01:00:00 17.7 8 Norte 11 Norte 0 -- -- 74
2020-06-28 00:00:00 19.3 7 Nordeste 21 Nordeste 0 -- -- 67
2020-06-27 23:00:00 20.5 17 Nordeste 21 Este 0 -- -- 63
2020-06-27 22:00:00 22 10 Norte 19 Noroeste 0 -- -- 49
2020-06-27 21:00:00 25.7 13 Noroeste 26 Noroeste 0 -- -- 39
2020-06-27 20:00:00 27.1 17 Noroeste 31 Noroeste 0 -- -- 37
2020-06-27 19:00:00 27.8 17 Noroeste 35 Noroeste 0 -- -- 37
2020-06-27 18:00:00 27.6 15 Norte 35 Noroeste 0 -- -- 37
2020-06-27 17:00:00 26.1 16 Norte 35 Noroeste 0 -- -- 40
2020-06-27 16:00:00 27.1 17 Noroeste 32 Oeste 0 -- -- 38
2020-06-27 15:00:00 25.3 21 Noroeste 33 Norte 0 -- -- 39
2020-06-27 14:00:00 24.6 17 Noroeste 33 Noroeste 0 -- -- 42
2020-06-27 13:00:00 23.7 17 Noroeste 31 Noroeste 0 -- -- 43
2020-06-27 12:00:00 22.6 19 Noroeste 32 Noroeste 0 -- -- 47
2020-06-27 11:00:00 21.6 14 Noroeste 28 Noroeste 0 -- -- 53
2020-06-27 10:00:00 19.6 13 Noroeste 22 Norte 0 -- -- 59
2020-06-27 09:00:00 17.3 11 Norte 18 Norte 0 -- -- 66
2020-06-27 08:00:00 15 11 Norte 19 Noroeste 0 -- -- 66
2020-06-27 07:00:00 14.1 9 Noroeste 29 Noroeste 0 -- -- 65
2020-06-27 06:00:00 15.2 6 Nordeste 16 Noroeste 0 -- -- 59
2020-06-27 05:00:00 15.9 6 Norte 16 Norte 0 -- -- 55
2020-06-27 04:00:00 15.8 7 Norte 13 Nordeste 0 -- -- 59
2020-06-27 03:00:00 15.3 4 Nordeste 14 Nordeste 0 -- -- 62
2020-06-27 02:00:00 15.3 3 Nordeste 10 Noroeste 0 -- -- 62
2020-06-27 01:00:00 16.3 5 Sudoeste 11 Sur 0 -- -- 72
2020-06-27 00:00:00 17.1 4 Sudoeste 10 Sudoeste 0 -- -- 69
2020-06-26 23:00:00 19.2 5 Sur 27 Sudeste 0 -- -- 66
2020-06-26 22:00:00 20.7 18 Sudeste 39 Sudeste 0 -- -- 62
2020-06-26 21:00:00 22.2 25 Sudeste 38 Sur 0 -- -- 56
2020-06-26 20:00:00 27.2 18 Oeste 43 Oeste 0 -- -- 28
2020-06-26 19:00:00 27.5 28 Oeste 43 Oeste 0 -- -- 27
2020-06-26 18:00:00 27.4 26 Oeste 44 Oeste 0 -- -- 33
2020-06-26 17:00:00 27.3 23 Oeste 42 Oeste 0 -- -- 36
2020-06-26 16:00:00 28.6 24 Oeste 45 Sudoeste 0 -- -- 35
2020-06-26 15:00:00 27.8 30 Oeste 48 Oeste 0 -- -- 36
2020-06-26 14:00:00 26.7 27 Sudoeste 44 Sudoeste 0 -- -- 41
2020-06-26 13:00:00 26.6 10 Sudoeste 30 Sudoeste 0 -- -- 45
2020-06-26 12:00:00 24.8 11 Sudoeste 30 Sudoeste 0 -- -- 48
2020-06-26 11:00:00 22.5 13 Sudoeste 33 Sudoeste 0 -- -- 50
2020-06-26 10:00:00 22 12 Sur 19 Sur 0 -- -- 52
2020-06-26 09:00:00 19.2 0 Calma 6 Noroeste 0 -- -- 69
2020-06-26 08:00:00 18.4 0 Calma 11 Sudeste 0 -- -- 76
2020-06-26 07:00:00 15 9 Sudeste 13 Este 0 -- -- 84
2020-06-26 06:00:00 14.6 9 Este 14 Este 0 -- -- 88
2020-06-26 05:00:00 14.5 6 Este 12 Sur 0 -- -- 89
2020-06-26 04:00:00 15.4 8 Sur 24 Sur 0 -- -- 87
2020-06-26 03:00:00 16.8 26 Sudoeste 41 Sur 0 -- -- 76
2020-06-26 02:00:00 16.9 14 Sur 39 Sudeste 0 -- -- 80
2020-06-26 01:00:00 17.2 30 Sudeste 46 Sudeste 0 -- -- 80
2020-06-26 00:00:00 17.1 22 Sudeste 33 Este 0.6 -- -- 84
2020-06-25 23:00:00 17.9 16 Sudoeste 30 Sur 0 -- -- 80
2020-06-25 22:00:00 17.3 15 Este 40 Este 0.2 -- -- 74
2020-06-25 21:00:00 17.1 23 Nordeste 33 Norte 0.4 -- -- 82
2020-06-25 20:00:00 18.5 17 Nordeste 42 Norte 0 -- -- 73
2020-06-25 19:00:00 22.1 19 Nordeste 38 Nordeste 0 -- -- 53
2020-06-25 18:00:00 22.6 33 Sudeste 55 Sudeste 0 -- -- 60
2020-06-25 17:00:00 25 28 Sudeste 45 Este 0 -- -- 52
2020-06-25 16:00:00 27.9 26 Nordeste 42 Este 0 -- -- 42
2020-06-25 15:00:00 29.3 10 Sudoeste 26 Norte 0 -- -- 36
2020-06-25 14:00:00 28.2 6 Noroeste 35 Sudoeste 0 -- -- 37
2020-06-25 13:00:00 29 23 Sudoeste 38 Sudoeste 0 -- -- 34
2020-06-25 12:00:00 27.8 20 Sudoeste 36 Sur 0 -- -- 38
2020-06-25 11:00:00 26 18 Sur 24 Sur 0 -- -- 41
2020-06-25 10:00:00 24.5 9 Sur 13 Sur 0 -- -- 47
2020-06-25 09:00:00 21.3 4 Sudeste 7 Sudeste 0 -- -- 55
2020-06-25 08:00:00 17.4 2 Este 9 Nordeste 0 -- -- 68
2020-06-25 07:00:00 15.2 4 Sur 6 Sur 0 -- -- 73
2020-06-25 06:00:00 14.8 2 Sur 17 Este 0 -- -- 75
2020-06-25 05:00:00 15.7 10 Este 20 Nordeste 0 -- -- 71
2020-06-25 04:00:00 15.3 15 Nordeste 17 Nordeste 0 -- -- 75
2020-06-25 03:00:00 17 4 Norte 18 Sudeste 0 -- -- 66
2020-06-25 02:00:00 18.7 9 Sur 25 Sudeste 0 -- -- 59
2020-06-25 01:00:00 18.7 11 Sudeste 38 Sudeste 0 -- -- 61
2020-06-25 00:00:00 19.4 25 Sudeste 40 Sudeste 0 -- -- 59
2020-06-24 23:00:00 21.1 21 Sudeste 32 Sudeste 0 -- -- 52
2020-06-24 22:00:00 22.5 15 Sur 24 Sudeste 0 -- -- 49
2020-06-24 21:00:00 25.3 17 Sur 29 Sur 0 -- -- 41
2020-06-24 20:00:00 27.5 22 Sur 32 Sur 0 -- -- 38
2020-06-24 19:00:00 28.1 23 Sur 37 Sur 0 -- -- 32
2020-06-24 18:00:00 30.2 22 Sur 32 Sur 0 -- -- 27
2020-06-24 17:00:00 28.3 11 Oeste 40 Oeste 0 -- -- 31
2020-06-24 16:00:00 24.4 25 Oeste 53 Oeste 0 -- -- 42
2020-06-24 15:00:00 24.7 36 Oeste 51 Oeste 0 -- -- 44
2020-06-24 14:00:00 26.3 19 Norte 38 Norte 0 -- -- 42
2020-06-24 13:00:00 25.9 25 Noroeste 37 Noroeste 0 -- -- 40
2020-06-24 12:00:00 25.5 5 Noroeste 30 Oeste 0 -- -- 48
2020-06-24 11:00:00 28.4 4 Este 17 Sudoeste 0 -- -- 43
2020-06-24 10:00:00 24 14 Sudoeste 19 Sudoeste 0 -- -- 55
2020-06-24 09:00:00 24 3 Sudeste 8 Sudeste 0 -- -- 52
2020-06-24 08:00:00 19.9 7 Este 21 Sudeste 0 -- -- 63
2020-06-24 07:00:00 17.5 19 Sudeste 24 Este 0 -- -- 66
2020-06-24 06:00:00 16.1 7 Este 14 Sur 0 -- -- 69
2020-06-24 05:00:00 17.8 4 Sur 10 Sudeste 0 -- -- 59
2020-06-24 04:00:00 19.1 3 Sudoeste 12 Sur 0 -- -- 55
2020-06-24 03:00:00 20.7 12 Sudeste 27 Sudoeste 0 -- -- 49
2020-06-24 02:00:00 21.5 6 Sur 27 Norte 0 -- -- 47
2020-06-24 01:00:00 22.4 25 Noroeste 47 Noroeste 0 -- -- 41
2020-06-24 00:00:00 21.3 17 Nordeste 26 Norte 0 -- -- 59
2020-06-23 23:00:00 22.5 3 Sudeste 12 Este 0 -- -- 52
2020-06-23 22:00:00 23.4 2 Oeste 30 Sudeste 0 -- -- 50
2020-06-23 21:00:00 26.3 27 Sudeste 39 Sudeste 0 -- -- 42
2020-06-23 20:00:00 28.7 22 Sudeste 32 Sudeste 0 -- -- 39
2020-06-23 19:00:00 26.9 17 Sur 34 Sudeste 0 -- -- 48
2020-06-23 18:00:00 29.4 21 Sudeste 29 Sudeste 0 -- -- 37
2020-06-23 17:00:00 32.7 6 Noroeste 21 Sudoeste 0 -- -- 23
2020-06-23 16:00:00 32.6 11 Sudoeste 19 Sudoeste 0 -- -- 24
2020-06-23 15:00:00 30.7 9 Oeste 24 Sudoeste 0 -- -- 31
2020-06-23 14:00:00 30.2 15 Sudoeste 27 Sudoeste 0 -- -- 33
2020-06-23 13:00:00 29.6 12 Sudoeste 24 Sudoeste 0 -- -- 35
2020-06-23 12:00:00 26.9 10 Sur 20 Sur 0 -- -- 41
2020-06-23 11:00:00 26 8 Sur 21 Sur 0 -- -- 44
2020-06-23 10:00:00 24.1 8 Sudoeste 14 Sur 0 -- -- 46
2020-06-23 09:00:00 20.5 7 Nordeste 10 Nordeste 0 -- -- 54
2020-06-23 08:00:00 16.6 6 Nordeste 9 Nordeste 0 -- -- 62
2020-06-23 07:00:00 12 10 Norte 13 Norte 0 -- -- 76
2020-06-23 06:00:00 12.4 7 Norte 14 Nordeste 0 -- -- 76
2020-06-23 05:00:00 13.3 6 Norte 10 Nordeste 0 -- -- 73
2020-06-23 04:00:00 14.7 3 Este 8 Sudeste 0 -- -- 68
2020-06-23 03:00:00 15.2 4 Este 9 Nordeste 0 -- -- 66
2020-06-23 02:00:00 15.7 2 Noroeste 9 Este 0 -- -- 66
2020-06-23 01:00:00 17.5 6 Este 12 Norte 0 -- -- 60
2020-06-23 00:00:00 16.9 10 Norte 13 Nordeste 0 -- -- 62
2020-06-22 23:00:00 19.8 2 Este 26 Nordeste 0 -- -- 51
2020-06-22 22:00:00 21.8 22 Nordeste 30 Nordeste 0 -- -- 44
2020-06-22 21:00:00 24.7 21 Nordeste 28 Nordeste 0 -- -- 37
2020-06-22 20:00:00 27.2 20 Nordeste 28 Nordeste 0 -- -- 32
2020-06-22 19:00:00 28.3 17 Nordeste 32 Este 0 -- -- 28
2020-06-22 18:00:00 28.6 17 Nordeste 27 Nordeste 0 -- -- 27
2020-06-22 17:00:00 28.5 15 Nordeste 24 Nordeste 0 -- -- 29
2020-06-22 16:00:00 28.2 12 Nordeste 31 Nordeste 0 -- -- 29
2020-06-22 15:00:00 26.7 16 Norte 27 Norte 0 -- -- 29
2020-06-22 14:00:00 26 13 Norte 25 Nordeste 0 -- -- 30
2020-06-22 13:00:00 25.3 9 Nordeste 22 Nordeste 0 -- -- 31
2020-06-22 12:00:00 23.4 10 Nordeste 29 Norte 0 -- -- 34
2020-06-22 11:00:00 21.5 14 Nordeste 22 Norte 0 -- -- 41
2020-06-22 10:00:00 19.7 10 Nordeste 28 Norte 0 -- -- 57
2020-06-22 09:00:00 16.9 21 Nordeste 30 Nordeste 0 -- -- 69
2020-06-22 08:00:00 15.3 13 Nordeste 18 Norte 0 -- -- 77
2020-06-22 07:00:00 12.1 4 Norte 18 Norte 0 -- -- 88
2020-06-22 06:00:00 12.3 4 Norte 18 Nordeste 0 -- -- 85
2020-06-22 05:00:00 13.5 15 Nordeste 28 Nordeste 0 -- -- 81
2020-06-22 04:00:00 13.6 13 Nordeste 32 Nordeste 0 -- -- 80
2020-06-22 03:00:00 14.3 19 Nordeste 31 Nordeste 0 -- -- 75
2020-06-22 02:00:00 14.7 17 Norte 31 Norte 0 -- -- 73
2020-06-22 01:00:00 15.5 21 Norte 45 Nordeste 0 -- -- 67
2020-06-22 00:00:00 16.1 30 Nordeste 51 Nordeste 0 -- -- 65
2020-06-21 23:00:00 17 35 Nordeste 52 Nordeste 0 -- -- 61
2020-06-21 22:00:00 18.2 35 Nordeste 51 Nordeste 0 -- -- 57
2020-06-21 21:00:00 21.2 36 Nordeste 49 Nordeste 0 -- -- 48
2020-06-21 20:00:00 24.3 30 Este 43 Este 0 -- -- 43
2020-06-21 19:00:00 26.1 27 Nordeste 40 Nordeste 0 -- -- 37
2020-06-21 18:00:00 27.7 18 Norte 35 Noroeste 0 -- -- 34
2020-06-21 17:00:00 28.1 22 Norte 38 Noroeste 0 -- -- 24
2020-06-21 16:00:00 28.1 18 Noroeste 38 Oeste 0 -- -- 27
2020-06-21 15:00:00 27.2 21 Noroeste 32 Noroeste 0 -- -- 30
2020-06-21 14:00:00 26.4 18 Noroeste 31 Noroeste 0 -- -- 34
2020-06-21 13:00:00 25.4 15 Noroeste 29 Noroeste 0 -- -- 37
2020-06-21 12:00:00 24.2 10 Noroeste 20 Noroeste 0 -- -- 41
2020-06-21 11:00:00 22.5 9 Noroeste 19 Noroeste 0 -- -- 43
2020-06-21 10:00:00 20.2 10 Norte 16 Noroeste 0 -- -- 54
2020-06-21 09:00:00 17.9 6 Nordeste 10 Norte 0 -- -- 67
2020-06-21 08:00:00 14 8 Nordeste 16 Nordeste 0 -- -- 80
2020-06-21 07:00:00 11.2 6 Nordeste 8 Norte 0 -- -- 88
2020-06-21 06:00:00 12.2 7 Norte 14 Nordeste 0 -- -- 84
2020-06-21 05:00:00 12.6 11 Norte 15 Nordeste 0 -- -- 83
2020-06-21 04:00:00 13.5 4 Noroeste 12 Norte 0 -- -- 82
2020-06-21 03:00:00 14.2 8 Nordeste 14 Nordeste 0 -- -- 84
2020-06-21 02:00:00 14.4 10 Nordeste 15 Nordeste 0 -- -- 82
2020-06-21 01:00:00 15.6 12 Nordeste 13 Nordeste 0 -- -- 77
2020-06-21 00:00:00 16.6 2 Noroeste 10 Nordeste 0 -- -- 69
2020-06-20 23:00:00 17.5 4 Nordeste 24 Nordeste 0 -- -- 66
2020-06-20 22:00:00 20.3 20 Nordeste 25 Nordeste 0 -- -- 59
2020-06-20 21:00:00 25.8 15 Noroeste 26 Noroeste 0 -- -- 30
2020-06-20 20:00:00 27.4 14 Noroeste 31 Norte 0 -- -- 28
2020-06-20 19:00:00 28.1 17 Noroeste 45 Noroeste 0 -- -- 26
2020-06-20 18:00:00 27.4 13 Noroeste 34 Oeste 0 -- -- 30
2020-06-20 17:00:00 27.5 18 Oeste 33 Oeste 0 -- -- 31
2020-06-20 16:00:00 27.6 23 Oeste 39 Oeste 0 -- -- 31
2020-06-20 15:00:00 25.9 15 Noroeste 33 Oeste 0 -- -- 34
2020-06-20 14:00:00 25.2 15 Noroeste 33 Oeste 0 -- -- 36
2020-06-20 13:00:00 23.6 14 Noroeste 27 Noroeste 0 -- -- 38
2020-06-20 12:00:00 23.2 9 Noroeste 19 Noroeste 0 -- -- 47
2020-06-20 11:00:00 22.2 8 Sur 17 Sudoeste 0 -- -- 57
2020-06-20 10:00:00 20.7 6 Sudoeste 12 Sur 0 -- -- 64
2020-06-20 09:00:00 17.9 3 Norte 8 Norte 0 -- -- 71
2020-06-20 08:00:00 13.9 5 Norte 11 Nordeste 0 -- -- 81
2020-06-20 07:00:00 11.1 9 Norte 12 Norte 0 -- -- 89
2020-06-20 06:00:00 11.6 6 Norte 10 Norte 0 -- -- 88
2020-06-20 05:00:00 11.9 8 Nordeste 11 Norte 0 -- -- 87
2020-06-20 04:00:00 12.9 5 Nordeste 13 Norte 0 -- -- 86
2020-06-20 03:00:00 12.4 10 Norte 14 Nordeste 0 -- -- 90
2020-06-20 02:00:00 13.3 9 Nordeste 12 Nordeste 0 -- -- 85
2020-06-20 01:00:00 14.3 6 Norte 11 Norte 0 -- -- 80
2020-06-20 00:00:00 15.4 3 Nordeste 18 Este 0 -- -- 75
2020-06-19 23:00:00 16.6 10 Nordeste 21 Este 0 -- -- 71
2020-06-19 22:00:00 19.1 17 Este 26 Nordeste 0 -- -- 64
2020-06-19 21:00:00 23.9 13 Norte 23 Noroeste 0 -- -- 32
2020-06-19 20:00:00 25.4 15 Noroeste 31 Noroeste 0 -- -- 30
2020-06-19 19:00:00 26.2 16 Noroeste 31 Noroeste 0 -- -- 29
2020-06-19 18:00:00 24.5 17 Oeste 33 Noroeste 0 -- -- 32
2020-06-19 17:00:00 25 17 Oeste 60 Noroeste 0 -- -- 31
2020-06-19 16:00:00 24.5 11 Noroeste 28 Oeste 0 -- -- 38
2020-06-19 15:00:00 23.5 15 Oeste 32 Noroeste 0 -- -- 40
2020-06-19 14:00:00 24.1 18 Sudoeste 33 Oeste 0 -- -- 41
2020-06-19 13:00:00 22.6 14 Oeste 25 Oeste 0 -- -- 48
2020-06-19 12:00:00 21.1 10 Sudoeste 20 Sudoeste 0 -- -- 55
2020-06-19 11:00:00 19 11 Sur 21 Sur 0 -- -- 61
2020-06-19 10:00:00 17.6 8 Sur 14 Sur 0 -- -- 63
2020-06-19 09:00:00 16 6 Nordeste 10 Nordeste 0 -- -- 66
2020-06-19 08:00:00 11.2 4 Norte 12 Norte 0 -- -- 87
2020-06-19 07:00:00 9.3 9 Norte 11 Norte 0 -- -- 92
2020-06-19 06:00:00 9.2 0 Calma 8 Norte 0 -- -- 89
2020-06-19 05:00:00 9.3 2 Norte 15 Nordeste 0 -- -- 90
2020-06-19 04:00:00 9.8 9 Nordeste 14 Nordeste 0 -- -- 86
2020-06-19 03:00:00 9.9 6 Nordeste 10 Norte 0 -- -- 86
2020-06-19 02:00:00 10.4 5 Norte 10 Norte 0 -- -- 86
2020-06-19 01:00:00 10.9 10 Nordeste 12 Nordeste 0 -- -- 84
2020-06-19 00:00:00 13.2 9 Nordeste 23 Nordeste 0 -- -- 75
2020-06-18 23:00:00 14.2 19 Nordeste 24 Nordeste 0 -- -- 69
2020-06-18 22:00:00 14.7 14 Nordeste 21 Este 0 -- -- 69
2020-06-18 21:00:00 17 16 Este 22 Este 0 -- -- 62
2020-06-18 20:00:00 17.1 15 Este 26 Sudeste 0 -- -- 68
2020-06-18 19:00:00 18.1 22 Este 30 Este 0 -- -- 65
2020-06-18 18:00:00 17.5 17 Nordeste 30 Nordeste 0.2 -- -- 70
2020-06-18 17:00:00 21.5 6 Nordeste 18 Sur 0 -- -- 46
2020-06-18 16:00:00 21.3 10 Sur 23 Sudoeste 0 -- -- 48
2020-06-18 15:00:00 19.2 5 Noroeste 21 Nordeste 0 -- -- 57
2020-06-18 14:00:00 19.3 10 Sudoeste 19 Este 0 -- -- 54
2020-06-18 13:00:00 19.3 4 Sur 15 Sur 0 -- -- 55
2020-06-18 12:00:00 17.5 5 Este 15 Este 0 -- -- 63
2020-06-18 11:00:00 14.4 7 Sudeste 15 Sudeste 0 -- -- 75
2020-06-18 10:00:00 13.2 8 Sudeste 13 Sudeste 0 -- -- 80
2020-06-18 09:00:00 12.1 6 Este 10 Este 0 -- -- 82
2020-06-18 08:00:00 10.8 4 Nordeste 9 Norte 0 -- -- 88
2020-06-18 07:00:00 7.8 3 Nordeste 7 Norte 0 -- -- 95
2020-06-18 06:00:00 8.5 6 Norte 10 Noroeste 0 -- -- 94
2020-06-18 05:00:00 9.5 3 Nordeste 15 Este 0 -- -- 92
2020-06-18 04:00:00 10.5 3 Sudeste 24 Sudeste 0.2 -- -- 88
2020-06-18 03:00:00 10.7 13 Sudeste 17 Sudeste 0.2 -- -- 89
2020-06-18 02:00:00 11.2 6 Sudeste 10 Sudeste 0 -- -- 83
2020-06-18 01:00:00 10.5 5 Nordeste 20 Nordeste 0 -- -- 84
2020-06-18 00:00:00 11.9 15 Nordeste 26 Nordeste 0 -- -- 76
2020-06-17 23:00:00 12 15 Este 22 Nordeste 0 -- -- 75
2020-06-17 22:00:00 12.9 11 Este 26 Nordeste 0 -- -- 71
2020-06-17 21:00:00 15.3 20 Nordeste 28 Nordeste 0 -- -- 62
2020-06-17 20:00:00 16.6 15 Nordeste 27 Nordeste 0 -- -- 58
2020-06-17 19:00:00 17.3 26 Nordeste 36 Nordeste 0 -- -- 54
2020-06-17 18:00:00 19.1 10 Oeste 27 Noroeste 0 -- -- 40
2020-06-17 17:00:00 18.9 15 Noroeste 27 Noroeste 0 -- -- 42
2020-06-17 16:00:00 19.6 12 Noroeste 21 Noroeste 0.2 -- -- 41
2020-06-17 15:00:00 17.7 6 Norte 19 Norte 0 -- -- 47
2020-06-17 14:00:00 17.7 6 Este 17 Nordeste 0 -- -- 56
2020-06-17 13:00:00 14.1 8 Nordeste 30 Norte 0.2 -- -- 70
2020-06-17 12:00:00 14.9 10 Nordeste 20 Nordeste 0 -- -- 63
2020-06-17 11:00:00 14.4 10 Sur 21 Sudoeste 0 -- -- 66
2020-06-17 10:00:00 13.4 13 Sudoeste 20 Sudoeste 0 -- -- 77
2020-06-17 09:00:00 11.1 4 Sur 11 Sur 0 -- -- 87
2020-06-17 08:00:00 10 8 Sur 10 Sudoeste 0 -- -- 90
2020-06-17 07:00:00 9.7 3 Norte 5 Norte 0 -- -- 88
2020-06-17 06:00:00 9.2 4 Sudeste 12 Este 0 -- -- 90
2020-06-17 05:00:00 9.3 11 Este 19 Este 0 -- -- 85
2020-06-17 04:00:00 9.2 10 Nordeste 15 Nordeste 0 -- -- 88
2020-06-17 03:00:00 8.7 5 Nordeste 22 Nordeste 0 -- -- 91
2020-06-17 02:00:00 9.4 19 Nordeste 27 Nordeste 0 -- -- 91
2020-06-17 01:00:00 9.4 11 Nordeste 28 Nordeste 0 -- -- 88
2020-06-17 00:00:00 11.2 21 Nordeste 30 Nordeste 0 -- -- 81
2020-06-16 23:00:00 11.6 23 Nordeste 35 Nordeste 0 -- -- 77
2020-06-16 22:00:00 11.8 15 Nordeste 26 Nordeste 0 -- -- 75
2020-06-16 21:00:00 12.9 23 Nordeste 39 Nordeste 0 -- -- 72
2020-06-16 20:00:00 17 21 Noroeste 41 Noroeste 0 -- -- 51
2020-06-16 19:00:00 18.2 33 Noroeste 48 Noroeste 0 -- -- 47
2020-06-16 18:00:00 20 24 Noroeste 40 Noroeste 0 -- -- 41
2020-06-16 17:00:00 20.2 19 Noroeste 37 Noroeste 0 -- -- 41
2020-06-16 16:00:00 19.6 23 Noroeste 42 Oeste 0 -- -- 41
2020-06-16 15:00:00 19.1 27 Noroeste 42 Noroeste 0 -- -- 42
2020-06-16 14:00:00 17.7 28 Noroeste 43 Noroeste 0 -- -- 46
2020-06-16 13:00:00 17.3 26 Noroeste 40 Noroeste 0 -- -- 49
2020-06-16 12:00:00 15.4 13 Noroeste 29 Oeste 0.2 -- -- 62
2020-06-16 11:00:00 14.4 10 Oeste 23 Noroeste 0 -- -- 73
2020-06-16 10:00:00 12.4 16 Noroeste 24 Noroeste 0 -- -- 81
2020-06-16 09:00:00 11 17 Noroeste 28 Noroeste 0.2 -- -- 88
2020-06-16 08:00:00 11.1 12 Noroeste 20 Noroeste 0 -- -- 89
2020-06-16 07:00:00 11 9 Noroeste 23 Noroeste 0 -- -- 91
2020-06-16 06:00:00 11.2 7 Oeste 15 Noroeste 0.2 -- -- 92
2020-06-16 05:00:00 11.3 4 Sur 17 Oeste 0.2 -- -- 92
2020-06-16 04:00:00 11.8 8 Oeste 14 Oeste 0.2 -- -- 92
2020-06-16 03:00:00 12.4 9 Sur 11 Sur 0.6 -- -- 96
2020-06-16 02:00:00 12.6 9 Sur 14 Sur 0.2 -- -- 95
2020-06-16 01:00:00 13.4 3 Noroeste 8 Nordeste 0 -- -- 89
2020-06-16 00:00:00 13.8 5 Este 10 Sur 0 -- -- 85
2020-06-15 23:00:00 13.8 3 Nordeste 13 Norte 0 -- -- 83
2020-06-15 22:00:00 14.5 10 Nordeste 15 Nordeste 0 -- -- 78
2020-06-15 21:00:00 14.9 14 Nordeste 23 Nordeste 0 -- -- 77
2020-06-15 20:00:00 13.8 7 Sur 57 Oeste 0.8 -- -- 84
2020-06-15 19:00:00 20 15 Norte 29 Norte 0 -- -- 50
2020-06-15 18:00:00 20.8 14 Norte 27 Norte 0 -- -- 49
2020-06-15 17:00:00 20.8 15 Norte 29 Norte 0 -- -- 48
2020-06-15 16:00:00 22.1 12 Oeste 28 Noroeste 0 -- -- 44
2020-06-15 15:00:00 20.8 13 Noroeste 30 Noroeste 0 -- -- 46
2020-06-15 14:00:00 19.1 13 Noroeste 28 Noroeste 0 -- -- 51
2020-06-15 13:00:00 18.9 13 Noroeste 28 Noroeste 0 -- -- 50
2020-06-15 12:00:00 17.5 13 Noroeste 31 Noroeste 0 -- -- 53
2020-06-15 11:00:00 16.5 15 Norte 26 Norte 0 -- -- 56
2020-06-15 10:00:00 15.1 11 Norte 18 Norte 0 -- -- 64
2020-06-15 09:00:00 13.1 10 Norte 15 Norte 0 -- -- 72
2020-06-15 08:00:00 10.5 4 Norte 11 Norte 0 -- -- 81
2020-06-15 07:00:00 9.8 5 Noroeste 11 Noroeste 0 -- -- 80
2020-06-15 06:00:00 9.8 5 Norte 8 Noroeste 0 -- -- 78
2020-06-15 05:00:00 10.1 0 Calma 4 Oeste 0 -- -- 77
2020-06-15 04:00:00 9.3 2 Sur 6 Sur 0 -- -- 82
2020-06-15 03:00:00 9 2 Sur 7 Sudeste 0 -- -- 82
2020-06-15 02:00:00 10.6 2 Nordeste 8 Norte 0 -- -- 79
2020-06-15 01:00:00 11.3 7 Norte 11 Norte 0 -- -- 78
2020-06-15 00:00:00 11.4 8 Nordeste 11 Nordeste 0 -- -- 78
2020-06-14 23:00:00 13.7 12 Nordeste 17 Este 0 -- -- 69
2020-06-14 22:00:00 15.3 10 Nordeste 18 Norte 0 -- -- 58
2020-06-14 21:00:00 17.2 14 Norte 23 Norte 0 -- -- 51
2020-06-14 20:00:00 18.4 19 Norte 26 Norte 0 -- -- 45
2020-06-14 19:00:00 18.9 7 Noroeste 21 Noroeste 0 -- -- 46
2020-06-14 18:00:00 19 12 Noroeste 22 Norte 0 -- -- 46
2020-06-14 17:00:00 19 12 Noroeste 30 Noroeste 0 -- -- 47
2020-06-14 16:00:00 19.7 12 Oeste 30 Noroeste 0 -- -- 44
2020-06-14 15:00:00 20 13 Noroeste 33 Noroeste 0 -- -- 43
2020-06-14 14:00:00 19.1 18 Noroeste 33 Noroeste 0 -- -- 43
2020-06-14 13:00:00 17.6 9 Noroeste 24 Noroeste 0 -- -- 50
2020-06-14 12:00:00 16.7 12 Noroeste 23 Noroeste 0 -- -- 53
2020-06-14 11:00:00 14.8 12 Norte 19 Norte 0 -- -- 60
2020-06-14 10:00:00 14.1 12 Norte 17 Noroeste 0 -- -- 66
2020-06-14 09:00:00 11.8 11 Norte 14 Norte 0 -- -- 74
2020-06-14 08:00:00 10.7 7 Nordeste 13 Norte 0 -- -- 79
2020-06-14 07:00:00 10.1 6 Nordeste 10 Nordeste 0 -- -- 80
2020-06-14 06:00:00 10.3 5 Norte 9 Norte 0 -- -- 76
2020-06-14 05:00:00 11.3 3 Norte 10 Noroeste 0 -- -- 71
2020-06-14 04:00:00 10.7 3 Norte 4 Nordeste 0 -- -- 77
2020-06-14 03:00:00 10.8 2 Norte 4 Norte 0 -- -- 75
2020-06-14 02:00:00 11.3 0 Calma 4 Norte 0 -- -- 71
2020-06-14 01:00:00 11 4 Noroeste 4 Nordeste 0 -- -- 76
2020-06-14 00:00:00 11.9 6 Este 15 Nordeste 0 -- -- 69
2020-06-13 23:00:00 12.8 8 Norte 17 Norte 0 -- -- 62
2020-06-13 22:00:00 13.9 9 Norte 14 Norte 0 -- -- 56
2020-06-13 21:00:00 16.3 10 Norte 25 Noroeste 0 -- -- 47
2020-06-13 20:00:00 17.6 22 Norte 34 Noroeste 0 -- -- 42
2020-06-13 19:00:00 18.3 18 Noroeste 36 Noroeste 0 -- -- 40
2020-06-13 18:00:00 18.1 21 Noroeste 35 Noroeste 0 -- -- 42
2020-06-13 17:00:00 17.1 22 Noroeste 37 Noroeste 0 -- -- 45
2020-06-13 16:00:00 17.1 14 Noroeste 38 Noroeste 0 -- -- 45
2020-06-13 15:00:00 16.8 21 Noroeste 36 Noroeste 0 -- -- 45
2020-06-13 14:00:00 15.1 27 Noroeste 41 Noroeste 0 -- -- 52
2020-06-13 13:00:00 13.4 21 Noroeste 40 Noroeste 0 -- -- 57
2020-06-13 12:00:00 12.6 23 Noroeste 39 Noroeste 0 -- -- 60
2020-06-13 11:00:00 11.4 24 Noroeste 37 Noroeste 0 -- -- 70
2020-06-13 10:00:00 10.2 21 Noroeste 36 Noroeste 0 -- -- 81
2020-06-13 09:00:00 9.9 19 Noroeste 31 Noroeste 0 -- -- 82
2020-06-13 08:00:00 9.1 12 Oeste 26 Oeste 0 -- -- 88
2020-06-13 07:00:00 8.7 18 Noroeste 30 Noroeste 0 -- -- 89
2020-06-13 06:00:00 8.4 14 Noroeste 25 Oeste 0 -- -- 90
2020-06-13 05:00:00 8.8 17 Oeste 25 Oeste 0 -- -- 88
2020-06-13 04:00:00 8.5 5 Sudoeste 13 Noroeste 0 -- -- 91
2020-06-13 03:00:00 9 9 Noroeste 19 Noroeste 0 -- -- 87
2020-06-13 02:00:00 8.3 4 Sudoeste 8 Oeste 0 -- -- 89
2020-06-13 01:00:00 7.5 5 Sur 8 Sur 0 -- -- 94
2020-06-13 00:00:00 7.3 4 Sur 8 Sur 0 -- -- 93
2020-06-12 23:00:00 7.1 4 Nordeste 19 Norte 0 -- -- 93
2020-06-12 22:00:00 8.3 8 Norte 48 Noroeste 0.2 -- -- 89
2020-06-12 21:00:00 10.1 15 Noroeste 36 Noroeste 0.2 -- -- 81
2020-06-12 20:00:00 12 15 Norte 43 Noroeste 0.2 -- -- 79
2020-06-12 19:00:00 14.1 29 Oeste 57 Oeste 0 -- -- 51
2020-06-12 18:00:00 14.5 35 Oeste 53 Oeste 0 -- -- 56
2020-06-12 17:00:00 13.8 10 Noroeste 49 Oeste 0 -- -- 66
2020-06-12 16:00:00 14.4 27 Oeste 47 Oeste 0 -- -- 53
2020-06-12 15:00:00 15.2 34 Oeste 46 Oeste 0 -- -- 51
2020-06-12 14:00:00 11.7 26 Oeste 44 Oeste 0 -- -- 65
2020-06-12 13:00:00 11.4 23 Oeste 35 Oeste 0 -- -- 63
2020-06-12 12:00:00 10.9 19 Oeste 40 Oeste 0 -- -- 67
2020-06-12 11:00:00 9.8 14 Oeste 27 Oeste 0 -- -- 68
2020-06-12 10:00:00 8.7 19 Sudoeste 29 Sudoeste 0 -- -- 70
2020-06-12 09:00:00 8.3 13 Oeste 29 Oeste 0 -- -- 70
2020-06-12 08:00:00 8.2 17 Oeste 31 Noroeste 0 -- -- 68
2020-06-12 07:00:00 6.9 20 Noroeste 42 Noroeste 0 -- -- 73
2020-06-12 06:00:00 7.1 24 Noroeste 40 Noroeste 0 -- -- 75
2020-06-12 05:00:00 6.3 8 Oeste 23 Oeste 0 -- -- 82
2020-06-12 04:00:00 7.6 14 Noroeste 29 Noroeste 0 -- -- 75
2020-06-12 03:00:00 8.1 18 Noroeste 25 Noroeste 0 -- -- 74
2020-06-12 02:00:00 8.9 15 Noroeste 31 Noroeste 0 -- -- 71
2020-06-12 01:00:00 10.6 16 Noroeste 26 Noroeste 0 -- -- 63
2020-06-12 00:00:00 11.9 16 Noroeste 32 Noroeste 0 -- -- 72